createdAt,value
2023-01-25T00:01:04.325Z,102376.86
2023-01-25T00:03:32.044Z,102374.52
2023-01-25T00:06:01.680Z,102371.23
2023-01-25T00:08:29.486Z,102366.48
2023-01-25T00:10:58.505Z,102362.09
2023-01-25T00:13:27.126Z,102358.91
2023-01-25T00:16:01.531Z,102361.09
2023-01-25T00:18:29.199Z,102362.17
2023-01-25T00:20:56.801Z,102359.21
2023-01-25T00:23:24.470Z,102353.05
2023-01-25T00:25:58.989Z,102348.57
2023-01-25T00:28:26.981Z,102345.04
2023-01-25T00:31:00.352Z,102348.66
2023-01-25T00:33:40.790Z,102350.08
2023-01-25T00:36:27.103Z,102350.53
2023-01-25T00:38:55.095Z,102353.37
2023-01-25T00:41:22.705Z,102350.17
2023-01-25T00:43:50.359Z,102350.68
2023-01-25T00:46:18.398Z,102353.08
2023-01-25T00:48:46.240Z,102354.42
2023-01-25T00:51:14.063Z,102352.02
2023-01-25T00:53:42.213Z,102348.95
2023-01-25T00:56:09.866Z,102344.48
2023-01-25T00:58:37.505Z,102342.52
2023-01-25T01:01:05.314Z,102337.12
2023-01-25T01:03:33.018Z,102334.54
2023-01-25T01:06:09.694Z,102330.19
2023-01-25T01:08:42.047Z,102328.02
2023-01-25T01:11:12.091Z,102326.55
2023-01-25T01:13:40.360Z,102321.29
2023-01-25T01:16:12.004Z,102320.57
2023-01-25T01:18:42.575Z,102321.25
2023-01-25T01:21:15.722Z,102321.65
2023-01-25T01:23:44.554Z,102323.20
2023-01-25T01:26:14.620Z,102327.64
2023-01-25T01:28:43.029Z,102324.23
2023-01-25T01:31:13.974Z,102318.20
2023-01-25T01:33:41.659Z,102316.02
2023-01-25T01:36:18.382Z,102309.86
2023-01-25T01:38:45.970Z,102305.64
2023-01-25T01:41:15.359Z,102302.95
2023-01-25T01:43:43.499Z,102298.27
2023-01-25T01:46:23.695Z,102286.76
2023-01-25T01:49:10.010Z,102292.45
2023-01-25T01:51:40.718Z,102292.36
2023-01-25T01:54:24.089Z,102293.09
2023-01-25T01:56:59.896Z,102290.27
2023-01-25T01:59:35.012Z,102289.29
2023-01-25T02:02:03.753Z,102285.60
2023-01-25T02:04:32.780Z,102284.90
2023-01-25T02:07:07.918Z,102279.70
2023-01-25T02:09:36.121Z,102274.91
2023-01-25T02:12:07.513Z,102267.20
2023-01-25T02:14:37.666Z,102261.73
2023-01-25T02:17:05.453Z,102257.56
2023-01-25T02:19:48.953Z,102259.47
2023-01-25T02:22:23.068Z,102251.51
2023-01-25T02:25:10.638Z,102247.04
2023-01-25T02:27:44.125Z,102251.89
2023-01-25T02:30:12.253Z,102249.26
2023-01-25T02:32:39.883Z,102242.52
2023-01-25T02:35:08.646Z,102236.40
2023-01-25T02:37:36.591Z,102240.13
2023-01-25T02:40:05.795Z,102235.05
2023-01-25T02:42:35.467Z,102233.97
2023-01-25T02:45:07.099Z,102232.95
2023-01-25T02:47:35.015Z,102228.34
2023-01-25T02:50:03.363Z,102229.34
2023-01-25T02:52:30.993Z,102226.86
2023-01-25T02:54:58.596Z,102222.97
2023-01-25T02:57:26.223Z,102217.53
2023-01-25T02:59:53.840Z,102216.41
2023-01-25T03:02:21.451Z,102217.05
2023-01-25T03:04:49.153Z,102209.81
2023-01-25T03:07:16.743Z,102211.56
2023-01-25T03:09:44.402Z,102209.82
2023-01-25T03:12:12.105Z,102203.19
2023-01-25T03:14:39.848Z,102197.54
2023-01-25T03:17:07.511Z,102197.31
2023-01-25T03:19:35.155Z,102198.88
2023-01-25T03:22:02.847Z,102201.91
2023-01-25T03:24:30.522Z,102204.83
2023-01-25T03:27:14.170Z,102202.21
2023-01-25T03:29:41.903Z,102199.02
2023-01-25T03:32:09.928Z,102195.43
2023-01-25T03:34:37.757Z,102192.43
2023-01-25T03:37:05.405Z,102192.21
2023-01-25T03:39:33.392Z,102186.99
2023-01-25T03:42:01.018Z,102186.45
2023-01-25T03:44:28.660Z,102183.56
2023-01-25T03:46:56.333Z,102181.48
2023-01-25T03:49:24.028Z,102179.91
2023-01-25T03:51:51.665Z,102175.70
2023-01-25T03:54:19.638Z,102175.80
2023-01-25T03:56:47.268Z,102174.48
2023-01-25T03:59:14.958Z,102178.27
2023-01-25T04:01:42.646Z,102176.64
2023-01-25T04:04:10.240Z,102170.05
2023-01-25T04:06:37.880Z,102170.74
2023-01-25T04:09:06.532Z,102170.45
2023-01-25T04:11:34.304Z,102167.29
2023-01-25T04:14:01.975Z,102168.84
2023-01-25T04:16:31.364Z,102166.02
2023-01-25T04:18:59.192Z,102161.58
2023-01-25T04:21:27.078Z,102156.52
2023-01-25T04:23:54.821Z,102149.87
2023-01-25T04:26:22.466Z,102151.61
2023-01-25T04:28:50.244Z,102149.59
2023-01-25T04:31:18.157Z,102152.97
2023-01-25T04:33:45.892Z,102149.33
2023-01-25T04:36:13.505Z,102145.80
2023-01-25T04:38:42.229Z,102145.70
2023-01-25T04:41:09.875Z,102142.83
2023-01-25T04:43:37.488Z,102138.45
2023-01-25T04:46:05.286Z,102136.40
2023-01-25T04:48:33.004Z,102135.05
2023-01-25T04:51:00.638Z,102135.48
2023-01-25T04:53:28.331Z,102138.13
2023-01-25T04:55:55.958Z,102141.89
2023-01-25T04:58:23.582Z,102136.25
2023-01-25T05:00:51.268Z,102140.39
2023-01-25T05:03:18.915Z,102136.36
2023-01-25T05:05:47.975Z,102138.17
2023-01-25T05:08:15.595Z,102125.43
2023-01-25T05:10:44.300Z,102119.89
2023-01-25T05:13:12.029Z,102115.20
2023-01-25T05:15:39.675Z,102112.84
2023-01-25T05:18:07.306Z,102106.86
2023-01-25T05:20:35.025Z,102099.71
2023-01-25T05:23:02.665Z,102097.77
2023-01-25T05:25:46.207Z,102091.94
2023-01-25T05:28:13.812Z,102092.92
2023-01-25T05:30:41.471Z,102092.65
2023-01-25T05:33:09.108Z,102087.92
2023-01-25T05:35:36.684Z,102088.44
2023-01-25T05:38:04.400Z,102088.52
2023-01-25T05:40:31.999Z,102086.66
2023-01-25T05:42:59.983Z,102078.98
2023-01-25T05:45:27.750Z,102082.12
2023-01-25T05:47:59.168Z,102085.10
2023-01-25T05:50:27.566Z,102086.17
2023-01-25T05:52:55.176Z,102090.21
2023-01-25T05:55:22.764Z,102090.66
2023-01-25T05:57:51.003Z,102090.65
2023-01-25T06:00:18.948Z,102090.14
2023-01-25T06:02:46.688Z,102086.29
2023-01-25T06:05:14.476Z,102089.34
2023-01-25T06:07:42.123Z,102082.27
2023-01-25T06:10:10.264Z,102079.25
2023-01-25T06:12:39.332Z,102078.62
2023-01-25T06:15:08.052Z,102075.94
2023-01-25T06:17:35.865Z,102071.41
2023-01-25T06:20:03.928Z,102070.55
2023-01-25T06:22:31.519Z,102064.08
2023-01-25T06:24:59.576Z,102060.70
2023-01-25T06:27:28.229Z,102059.40
2023-01-25T06:29:55.834Z,102059.70
2023-01-25T06:32:27.415Z,102069.02
2023-01-25T06:34:54.988Z,102066.00
2023-01-25T06:37:23.181Z,102067.27
2023-01-25T06:39:51.599Z,102062.11
2023-01-25T06:42:19.434Z,102060.67
2023-01-25T06:44:47.093Z,102061.30
2023-01-25T06:47:14.710Z,102060.13
2023-01-25T06:49:42.345Z,102059.13
2023-01-25T06:52:09.949Z,102062.17
2023-01-25T06:54:37.540Z,102061.98
2023-01-25T06:57:05.159Z,102059.02
2023-01-25T06:59:32.825Z,102051.67
2023-01-25T07:02:00.500Z,102055.83
2023-01-25T07:04:28.293Z,102062.98
2023-01-25T07:06:55.987Z,102062.68
2023-01-25T07:09:24.453Z,102061.05
2023-01-25T07:11:52.339Z,102057.91
2023-01-25T07:14:20.149Z,102058.91
2023-01-25T07:16:47.934Z,102048.75
2023-01-25T07:19:17.871Z,102050.52
2023-01-25T07:21:47.129Z,102048.76
2023-01-25T07:24:17.667Z,102044.67
2023-01-25T07:26:45.950Z,102042.29
2023-01-25T07:29:16.158Z,102045.01
2023-01-25T07:31:44.001Z,102039.77
2023-01-25T07:34:13.156Z,102036.83
2023-01-25T07:36:41.437Z,102037.18
2023-01-25T07:39:11.718Z,102037.76
2023-01-25T07:41:40.548Z,102034.55
2023-01-25T07:44:10.399Z,102033.13
2023-01-25T07:46:38.395Z,102028.36
2023-01-25T07:49:06.472Z,102028.14
2023-01-25T07:51:34.406Z,102029.00
2023-01-25T07:54:04.579Z,102028.45
2023-01-25T07:56:38.481Z,102023.06
2023-01-25T07:59:08.410Z,102016.40
2023-01-25T08:01:37.022Z,102015.30
2023-01-25T08:04:06.039Z,102014.69
2023-01-25T08:06:38.813Z,102018.82
2023-01-25T08:09:17.277Z,102019.11
2023-01-25T08:11:45.664Z,102018.25
2023-01-25T08:14:13.313Z,102008.41
2023-01-25T08:16:41.177Z,102000.13
2023-01-25T08:19:11.097Z,101995.00
2023-01-25T08:21:39.783Z,101997.29
2023-01-25T08:24:08.496Z,101996.16
2023-01-25T08:26:37.324Z,101997.36
2023-01-25T08:29:06.082Z,101996.14
2023-01-25T08:31:35.608Z,101993.85
2023-01-25T08:34:04.068Z,101991.20
2023-01-25T08:36:31.767Z,101985.02
2023-01-25T08:39:06.219Z,101988.48
2023-01-25T08:41:34.945Z,101992.36
2023-01-25T08:44:02.802Z,101987.74
2023-01-25T08:46:33.183Z,101981.90
2023-01-25T08:49:02.176Z,101982.73
2023-01-25T08:51:31.822Z,101982.58
2023-01-25T08:54:08.208Z,101980.98
2023-01-25T08:56:40.770Z,101976.00
2023-01-25T08:59:11.412Z,101966.91
2023-01-25T09:01:39.514Z,101964.18
2023-01-25T09:04:07.141Z,101961.45
2023-01-25T09:06:34.886Z,101962.64
2023-01-25T09:09:04.627Z,101963.91
2023-01-25T09:11:36.858Z,101956.55
2023-01-25T09:14:05.250Z,101950.77
2023-01-25T09:16:33.335Z,101952.78
2023-01-25T09:19:03.776Z,101953.34
2023-01-25T09:21:33.001Z,101951.63
2023-01-25T09:24:06.346Z,101949.39
2023-01-25T09:26:38.565Z,101946.23
2023-01-25T09:29:08.235Z,101941.73
2023-01-25T09:31:40.666Z,101933.74
2023-01-25T09:34:12.624Z,101936.16
2023-01-25T09:36:40.372Z,101934.10
2023-01-25T09:39:12.280Z,101934.83
2023-01-25T09:42:14.923Z,101935.58
2023-01-25T09:44:55.308Z,101935.92
2023-01-25T09:47:45.127Z,101929.42
2023-01-25T09:50:31.634Z,101924.90
2023-01-25T09:53:21.657Z,101919.02
2023-01-25T09:55:53.952Z,101910.72
2023-01-25T09:58:29.260Z,101907.27
2023-01-25T10:01:38.691Z,101897.10
2023-01-25T10:04:25.050Z,101891.14
2023-01-25T10:07:01.235Z,101890.02
2023-01-25T10:09:42.630Z,101892.02
2023-01-25T10:12:20.363Z,101895.70
2023-01-25T10:14:49.163Z,101893.80
2023-01-25T10:17:39.740Z,101891.08
2023-01-25T10:20:31.879Z,101886.86
2023-01-25T10:23:24.048Z,101880.23
2023-01-25T10:25:59.363Z,101876.19
2023-01-25T10:28:41.632Z,101866.73
2023-01-25T10:31:19.551Z,101868.37
2023-01-25T10:33:49.085Z,101862.44
2023-01-25T10:36:21.835Z,101864.05
2023-01-25T10:38:49.697Z,101866.27
2023-01-25T10:41:41.144Z,101867.70
2023-01-25T10:44:28.676Z,101865.02
2023-01-25T10:47:03.887Z,101860.66
2023-01-25T10:49:40.795Z,101855.48
2023-01-25T10:52:23.153Z,101856.20
2023-01-25T10:55:12.542Z,101853.98
2023-01-25T10:58:00.704Z,101842.73
2023-01-25T11:00:40.033Z,101836.65
2023-01-25T11:03:21.351Z,101838.48
2023-01-25T11:05:56.669Z,101837.08
2023-01-25T11:08:33.240Z,101831.39
2023-01-25T11:11:15.184Z,101826.23
2023-01-25T11:13:43.336Z,101823.33
2023-01-25T11:16:36.047Z,101818.46
2023-01-25T11:19:24.394Z,101810.56
2023-01-25T11:21:53.430Z,101804.80
2023-01-25T11:24:25.699Z,101805.04
2023-01-25T11:27:12.544Z,101802.05
2023-01-25T11:29:40.601Z,101796.07
2023-01-25T11:32:21.499Z,101788.55
2023-01-25T11:34:50.885Z,101784.50
2023-01-25T11:37:47.214Z,101783.98
2023-01-25T11:40:20.221Z,101775.91
2023-01-25T11:43:19.709Z,101770.67
2023-01-25T11:46:19.310Z,101769.49
2023-01-25T11:49:02.864Z,101762.55
2023-01-25T11:51:42.680Z,101750.98
2023-01-25T11:54:46.602Z,101739.84
2023-01-25T11:57:46.158Z,101741.73
2023-01-25T12:00:45.595Z,101739.40
2023-01-25T12:03:32.570Z,101736.05
2023-01-25T12:06:16.350Z,101732.31
2023-01-25T12:09:04.293Z,101730.46
2023-01-25T12:11:31.961Z,101724.69
2023-01-25T12:14:08.506Z,101724.43
2023-01-25T12:16:58.218Z,101721.06
2023-01-25T12:19:41.769Z,101713.24
2023-01-25T12:22:41.291Z,101706.92
2023-01-25T12:25:40.753Z,101703.27
2023-01-25T12:28:37.582Z,101697.31
2023-01-25T12:31:17.250Z,101685.73
2023-01-25T12:33:56.746Z,101687.89
2023-01-25T12:36:30.776Z,101685.39
2023-01-25T12:39:12.399Z,101685.48
2023-01-25T12:41:46.473Z,101673.38
2023-01-25T12:44:23.998Z,101668.92
2023-01-25T12:46:54.622Z,101666.06
2023-01-25T12:49:33.553Z,101669.77
2023-01-25T12:52:06.522Z,101662.48
2023-01-25T12:54:42.915Z,101662.39
2023-01-25T12:57:32.409Z,101651.46
2023-01-25T13:00:20.765Z,101644.23
2023-01-25T13:02:56.353Z,101639.77
2023-01-25T13:05:55.922Z,101641.14
2023-01-25T13:08:38.660Z,101640.99
2023-01-25T13:11:19.274Z,101639.05
2023-01-25T13:13:47.488Z,101634.10
2023-01-25T13:16:32.275Z,101631.71
2023-01-25T13:19:00.115Z,101626.73
2023-01-25T13:21:47.593Z,101624.90
2023-01-25T13:24:24.040Z,101624.64
2023-01-25T13:26:54.951Z,101617.34
2023-01-25T13:29:31.801Z,101610.83
2023-01-25T13:32:00.658Z,101602.92
2023-01-25T13:34:44.266Z,101599.77
2023-01-25T13:37:19.707Z,101596.59
2023-01-25T13:40:06.026Z,101593.61
2023-01-25T13:42:36.283Z,101595.12
2023-01-25T13:45:20.915Z,101592.68
2023-01-25T13:48:05.543Z,101587.49
2023-01-25T13:50:37.959Z,101581.27
2023-01-25T13:53:23.901Z,101583.02
2023-01-25T13:55:57.299Z,101579.22
2023-01-25T13:58:48.195Z,101580.65
2023-01-25T14:01:18.640Z,101577.20
2023-01-25T14:03:59.575Z,101569.52
2023-01-25T14:06:30.453Z,101564.52
2023-01-25T14:09:07.870Z,101561.84
2023-01-25T14:11:43.728Z,101558.09
2023-01-25T14:14:29.051Z,101553.67
2023-01-25T14:17:24.889Z,101549.36
2023-01-25T14:19:56.407Z,101545.27
2023-01-25T14:22:28.955Z,101538.50
2023-01-25T14:25:17.243Z,101536.92
2023-01-25T14:28:13.886Z,101532.49
2023-01-25T14:30:42.563Z,101534.75
2023-01-25T14:33:20.306Z,101536.49
2023-01-25T14:35:55.427Z,101525.99
2023-01-25T14:38:31.341Z,101522.17
2023-01-25T14:41:18.275Z,101523.80
2023-01-25T14:43:49.195Z,101522.48
2023-01-25T14:46:35.821Z,101521.96
2023-01-25T14:49:25.277Z,101520.64
2023-01-25T14:52:19.246Z,101523.95
2023-01-25T14:55:02.925Z,101518.57
2023-01-25T14:57:30.545Z,101513.80
2023-01-25T14:59:59.449Z,101512.48
2023-01-25T15:02:40.907Z,101506.08
2023-01-25T15:05:30.114Z,101506.55
2023-01-25T15:08:13.520Z,101504.76
2023-01-25T15:10:58.232Z,101502.69
2023-01-25T15:13:27.718Z,101498.55
2023-01-25T15:15:58.594Z,101493.30
2023-01-25T15:18:46.642Z,101487.27
2023-01-25T15:21:24.682Z,101484.88
2023-01-25T15:23:53.682Z,101489.70
2023-01-25T15:26:29.663Z,101494.71
2023-01-25T15:29:02.484Z,101492.55
2023-01-25T15:31:34.840Z,101488.45
2023-01-25T15:34:03.361Z,101484.35
2023-01-25T15:36:32.746Z,101484.63
2023-01-25T15:39:00.441Z,101481.59
2023-01-25T15:41:28.073Z,101477.39
2023-01-25T15:43:55.823Z,101479.11
2023-01-25T15:46:29.340Z,101476.19
2023-01-25T15:48:57.400Z,101480.65
2023-01-25T15:51:26.253Z,101479.27
2023-01-25T15:53:54.074Z,101473.84
2023-01-25T15:56:35.804Z,101467.79
2023-01-25T15:59:08.839Z,101468.04
2023-01-25T16:01:36.821Z,101465.22
2023-01-25T16:04:04.739Z,101464.27
2023-01-25T16:06:43.035Z,101462.09
2023-01-25T16:09:15.192Z,101458.13
2023-01-25T16:11:43.453Z,101457.75
2023-01-25T16:14:11.609Z,101453.44
2023-01-25T16:16:44.171Z,101445.94
2023-01-25T16:19:16.677Z,101446.27
2023-01-25T16:21:44.356Z,101446.02
2023-01-25T16:24:12.677Z,101444.02
2023-01-25T16:26:47.591Z,101443.30
2023-01-25T16:29:15.291Z,101444.83
2023-01-25T16:31:43.161Z,101443.08
2023-01-25T16:34:10.957Z,101439.02
2023-01-25T16:36:39.695Z,101436.02
2023-01-25T16:39:10.052Z,101434.54
2023-01-25T16:41:38.015Z,101424.96
2023-01-25T16:44:05.749Z,101425.66
2023-01-25T16:46:33.438Z,101423.61
2023-01-25T16:49:04.292Z,101423.77
2023-01-25T16:51:32.922Z,101423.60
2023-01-25T16:54:00.628Z,101420.55
2023-01-25T16:56:31.016Z,101416.68
2023-01-25T16:59:03.836Z,101415.45
2023-01-25T17:01:32.058Z,101414.52
2023-01-25T17:03:59.959Z,101408.98
2023-01-25T17:06:33.225Z,101411.20
2023-01-25T17:09:20.546Z,101406.46
2023-01-25T17:11:50.011Z,101409.58
2023-01-25T17:14:19.213Z,101407.48
2023-01-25T17:16:51.201Z,101404.67
2023-01-25T17:19:19.831Z,101398.59
2023-01-25T17:21:48.526Z,101396.69
2023-01-25T17:24:19.067Z,101398.41
2023-01-25T17:26:47.234Z,101396.53
2023-01-25T17:29:14.877Z,101396.70
2023-01-25T17:31:44.089Z,101395.64
2023-01-25T17:34:15.883Z,101389.48
2023-01-25T17:36:45.310Z,101386.56
2023-01-25T17:39:15.438Z,101382.30
2023-01-25T17:41:44.907Z,101385.37
2023-01-25T17:44:13.876Z,101384.69
2023-01-25T17:46:41.458Z,101376.11
2023-01-25T17:49:12.072Z,101373.48
2023-01-25T17:51:39.753Z,101369.27
2023-01-25T17:54:07.709Z,101368.17
2023-01-25T17:56:37.351Z,101366.54
2023-01-25T17:59:11.566Z,101364.05
2023-01-25T18:01:42.765Z,101360.73
2023-01-25T18:04:10.603Z,101364.73
2023-01-25T18:06:38.259Z,101355.70
2023-01-25T18:09:06.774Z,101349.91
2023-01-25T18:11:37.132Z,101346.02
2023-01-25T18:14:10.459Z,101345.40
2023-01-25T18:16:40.732Z,101339.95
2023-01-25T18:19:09.596Z,101338.32
2023-01-25T18:21:38.010Z,101341.05
2023-01-25T18:24:33.289Z,101335.58
2023-01-25T18:27:22.084Z,101337.73
2023-01-25T18:30:00.231Z,101334.26
2023-01-25T18:32:29.820Z,101336.61
2023-01-25T18:34:57.478Z,101333.19
2023-01-25T18:37:29.351Z,101328.55
2023-01-25T18:39:57.102Z,101325.02
2023-01-25T18:42:27.757Z,101321.74
2023-01-25T18:44:55.482Z,101316.73
2023-01-25T18:47:23.673Z,101313.85
2023-01-25T18:49:53.202Z,101305.77
2023-01-25T18:52:22.970Z,101304.70
2023-01-25T18:54:50.674Z,101300.72
2023-01-25T18:57:19.163Z,101298.75
2023-01-25T18:59:46.830Z,101298.41
2023-01-25T19:02:16.431Z,101291.23
2023-01-25T19:04:45.392Z,101282.90
2023-01-25T19:07:13.361Z,101278.87
2023-01-25T19:09:43.481Z,101279.66
2023-01-25T19:12:11.151Z,101277.19
2023-01-25T19:14:38.895Z,101272.37
2023-01-25T19:17:08.184Z,101265.52
2023-01-25T19:19:35.934Z,101259.23
2023-01-25T19:22:03.605Z,101254.91
2023-01-25T19:24:31.375Z,101256.55
2023-01-25T19:26:59.193Z,101258.41
2023-01-25T19:29:27.065Z,101256.90
2023-01-25T19:31:54.842Z,101249.81
2023-01-25T19:34:22.556Z,101249.56
2023-01-25T19:36:50.527Z,101252.27
2023-01-25T19:39:18.351Z,101253.38
2023-01-25T19:41:46.420Z,101253.58
2023-01-25T19:44:14.923Z,101255.48
2023-01-25T19:46:43.090Z,101259.86
2023-01-25T19:49:11.682Z,101256.83
2023-01-25T19:51:42.612Z,101248.79
2023-01-25T19:54:12.973Z,101246.03
2023-01-25T19:56:41.722Z,101243.73
2023-01-25T19:59:17.110Z,101249.73
2023-01-25T20:01:46.220Z,101248.98
2023-01-25T20:04:17.437Z,101246.05
2023-01-25T20:06:45.149Z,101238.83
2023-01-25T20:09:14.255Z,101234.27
2023-01-25T20:11:42.223Z,101228.82
2023-01-25T20:14:12.823Z,101226.29
2023-01-25T20:16:40.677Z,101229.66
2023-01-25T20:19:12.019Z,101232.31
2023-01-25T20:21:40.231Z,101236.32
2023-01-25T20:24:09.804Z,101235.91
2023-01-25T20:26:42.444Z,101237.41
2023-01-25T20:29:11.734Z,101228.69
2023-01-25T20:31:45.252Z,101223.48
2023-01-25T20:34:18.977Z,101222.02
2023-01-25T20:36:47.753Z,101217.91
2023-01-25T20:39:18.540Z,101222.70
2023-01-25T20:41:47.018Z,101224.75
2023-01-25T20:44:17.834Z,101225.60
2023-01-25T20:46:46.131Z,101218.41
2023-01-25T20:49:16.560Z,101210.94
2023-01-25T20:51:44.883Z,101203.48
2023-01-25T20:54:12.637Z,101202.31
2023-01-25T20:56:40.810Z,101201.40
2023-01-25T20:59:08.990Z,101200.90
2023-01-25T21:01:37.331Z,101196.88
2023-01-25T21:04:07.232Z,101198.25
2023-01-25T21:06:35.784Z,101201.08
2023-01-25T21:09:04.533Z,101203.50
2023-01-25T21:11:32.528Z,101201.03
2023-01-25T21:14:00.561Z,101193.44
2023-01-25T21:16:28.430Z,101185.29
2023-01-25T21:18:58.420Z,101183.98
2023-01-25T21:21:29.152Z,101180.79
2023-01-25T21:24:00.148Z,101174.25
2023-01-25T21:26:30.462Z,101169.27
2023-01-25T21:28:59.613Z,101165.63
2023-01-25T21:31:31.177Z,101165.58
2023-01-25T21:33:59.300Z,101166.09
2023-01-25T21:36:27.671Z,101164.41
2023-01-25T21:38:55.774Z,101159.22
2023-01-25T21:41:29.809Z,101156.58
2023-01-25T21:44:14.447Z,101158.40
2023-01-25T21:46:52.345Z,101164.02
2023-01-25T21:49:44.258Z,101161.23
2023-01-25T21:52:12.026Z,101156.75
2023-01-25T21:54:40.304Z,101154.02
2023-01-25T21:57:09.589Z,101154.39
2023-01-25T21:59:38.397Z,101153.42
2023-01-25T22:02:07.712Z,101150.89
2023-01-25T22:04:36.235Z,101151.06
2023-01-25T22:07:05.606Z,101154.81
2023-01-25T22:09:33.215Z,101155.54
2023-01-25T22:12:01.931Z,101151.44
2023-01-25T22:14:29.743Z,101147.27
2023-01-25T22:16:57.948Z,101141.41
2023-01-25T22:19:25.640Z,101141.19
2023-01-25T22:21:53.251Z,101144.15
2023-01-25T22:24:20.955Z,101143.96
2023-01-25T22:27:08.451Z,101146.14
2023-01-25T22:29:36.040Z,101139.40
2023-01-25T22:32:04.096Z,101138.40
2023-01-25T22:34:31.780Z,101141.27
2023-01-25T22:36:59.398Z,101139.59
2023-01-25T22:39:27.038Z,101139.92
2023-01-25T22:41:55.747Z,101135.03
2023-01-25T22:44:28.683Z,101135.61
2023-01-25T22:46:56.317Z,101131.98
2023-01-25T22:49:23.976Z,101125.27
2023-01-25T22:51:51.613Z,101125.13
2023-01-25T22:54:19.243Z,101121.52
2023-01-25T22:56:46.943Z,101118.51
2023-01-25T22:59:19.237Z,101112.13
2023-01-25T23:01:47.058Z,101108.02
2023-01-25T23:04:14.788Z,101102.30
2023-01-25T23:06:42.407Z,101102.09
2023-01-25T23:09:10.527Z,101099.80
2023-01-25T23:11:38.610Z,101097.86
2023-01-25T23:14:24.848Z,101098.34
2023-01-25T23:16:52.658Z,101098.27
2023-01-25T23:19:20.613Z,101093.84
2023-01-25T23:21:48.250Z,101091.46
2023-01-25T23:24:15.920Z,101089.13
2023-01-25T23:26:46.597Z,101089.05
2023-01-25T23:29:14.705Z,101089.74
2023-01-25T23:31:43.962Z,101088.02
2023-01-25T23:34:11.633Z,101087.53
2023-01-25T23:36:41.429Z,101077.65
2023-01-25T23:39:13.125Z,101067.05
2023-01-25T23:41:40.741Z,101062.10
2023-01-25T23:44:09.815Z,101059.08
2023-01-25T23:46:37.538Z,101058.01
2023-01-25T23:49:05.200Z,101052.38
2023-01-25T23:51:32.821Z,101049.17
2023-01-25T23:54:00.379Z,101047.32
2023-01-25T23:56:28.068Z,101048.05
2023-01-25T23:58:55.648Z,101049.34
